createdAt,value
2022-08-02T00:01:00.424Z,327
2022-08-02T00:02:09.582Z,327
2022-08-02T00:03:18.756Z,328
2022-08-02T00:04:27.931Z,328
2022-08-02T00:05:37.096Z,330
2022-08-02T00:06:46.275Z,327
2022-08-02T00:07:55.453Z,328
2022-08-02T00:09:04.629Z,330
2022-08-02T00:10:13.794Z,328
2022-08-02T00:11:22.966Z,328
2022-08-02T00:12:32.150Z,328
2022-08-02T00:13:41.326Z,327
2022-08-02T00:14:49.514Z,328
2022-08-02T00:15:58.681Z,329
2022-08-02T00:17:07.848Z,328
2022-08-02T00:18:17.016Z,328
2022-08-02T00:19:26.194Z,328
2022-08-02T00:20:34.378Z,329
2022-08-02T00:21:42.565Z,328
2022-08-02T00:22:51.743Z,329
2022-08-02T00:24:00.918Z,330
2022-08-02T00:25:10.089Z,329
2022-08-02T00:26:19.267Z,328
2022-08-02T00:27:28.461Z,330
2022-08-02T00:28:37.617Z,330
2022-08-02T00:29:46.773Z,329
2022-08-02T00:30:55.952Z,329
2022-08-02T00:32:04.149Z,328
2022-08-02T00:33:12.331Z,328
2022-08-02T00:34:21.510Z,329
2022-08-02T00:35:30.675Z,328
2022-08-02T00:36:39.848Z,328
2022-08-02T00:37:49.022Z,330
2022-08-02T00:38:58.198Z,329
2022-08-02T00:40:07.362Z,330
2022-08-02T00:41:16.536Z,328
2022-08-02T00:42:25.721Z,327
2022-08-02T00:43:34.880Z,328
2022-08-02T00:44:44.058Z,328
2022-08-02T00:45:53.224Z,328
2022-08-02T00:47:02.395Z,328
2022-08-02T00:48:11.577Z,328
2022-08-02T00:49:19.768Z,329
2022-08-02T00:50:28.929Z,330
2022-08-02T00:51:38.097Z,328
2022-08-02T00:52:47.278Z,328
2022-08-02T00:53:56.447Z,328
2022-08-02T00:55:05.622Z,328
2022-08-02T00:56:14.788Z,329
2022-08-02T00:57:23.961Z,328
2022-08-02T00:58:33.143Z,328
2022-08-02T00:59:42.317Z,327
2022-08-02T01:00:51.471Z,328
2022-08-02T01:02:00.654Z,328
2022-08-02T01:03:09.831Z,330
2022-08-02T01:04:18.014Z,328
2022-08-02T01:05:27.188Z,330
2022-08-02T01:06:36.359Z,328
2022-08-02T01:07:44.547Z,327
2022-08-02T01:08:53.724Z,329
2022-08-02T01:10:02.895Z,329
2022-08-02T01:11:12.062Z,327
2022-08-02T01:12:21.240Z,329
2022-08-02T01:13:30.415Z,328
2022-08-02T01:14:39.591Z,329
2022-08-02T01:15:48.763Z,330
2022-08-02T01:16:57.935Z,328
2022-08-02T01:18:07.115Z,328
2022-08-02T01:19:16.296Z,328
2022-08-02T01:20:25.448Z,328
2022-08-02T01:22:43.802Z,329
2022-08-02T01:23:51.982Z,328
2022-08-02T01:25:01.152Z,329
2022-08-02T01:26:09.359Z,327
2022-08-02T01:27:17.540Z,329
2022-08-02T01:28:26.719Z,327
2022-08-02T01:29:34.911Z,328
2022-08-02T01:30:43.096Z,328
2022-08-02T01:31:52.260Z,328
2022-08-02T01:33:01.441Z,328
2022-08-02T01:34:10.622Z,328
2022-08-02T01:35:19.811Z,328
2022-08-02T01:36:28.958Z,328
2022-08-02T01:37:38.131Z,329
2022-08-02T01:38:47.307Z,328
2022-08-02T01:39:56.476Z,328
2022-08-02T01:41:05.652Z,328
2022-08-02T01:42:14.821Z,328
2022-08-02T01:43:23.995Z,329
2022-08-02T01:44:33.180Z,329
2022-08-02T01:45:41.353Z,328
2022-08-02T01:46:50.535Z,329
2022-08-02T01:47:59.690Z,328
2022-08-02T01:49:08.871Z,329
2022-08-02T01:51:27.219Z,328
2022-08-02T01:52:36.389Z,328
2022-08-02T01:53:45.561Z,330
2022-08-02T01:54:54.729Z,328
2022-08-02T01:56:03.896Z,329
2022-08-02T01:57:13.090Z,329
2022-08-02T01:58:22.246Z,329
2022-08-02T01:59:31.424Z,330
2022-08-02T02:00:39.625Z,327
2022-08-02T02:01:48.790Z,328
2022-08-02T02:02:57.958Z,328
2022-08-02T02:04:07.135Z,330
2022-08-02T02:05:16.305Z,328
2022-08-02T02:06:25.477Z,328
2022-08-02T02:07:34.648Z,328
2022-08-02T02:08:43.816Z,328
2022-08-02T02:09:52.995Z,329
2022-08-02T02:11:02.161Z,330
2022-08-02T02:12:11.339Z,328
2022-08-02T02:13:20.514Z,330
2022-08-02T02:14:29.684Z,328
2022-08-02T02:15:37.884Z,328
2022-08-02T02:16:47.045Z,329
2022-08-02T02:17:56.214Z,328
2022-08-02T02:19:05.385Z,330
2022-08-02T02:20:14.570Z,328
2022-08-02T02:21:23.740Z,328
2022-08-02T02:22:32.914Z,328
2022-08-02T02:23:42.080Z,329
2022-08-02T02:24:51.251Z,327
2022-08-02T02:26:00.449Z,329
2022-08-02T02:27:09.601Z,328
2022-08-02T02:28:18.771Z,328
2022-08-02T02:29:27.959Z,329
2022-08-02T02:30:36.128Z,328
2022-08-02T02:31:45.307Z,328
2022-08-02T02:32:54.483Z,327
2022-08-02T02:34:03.655Z,328
2022-08-02T02:35:12.827Z,328
2022-08-02T02:36:21.995Z,329
2022-08-02T02:37:31.166Z,328
2022-08-02T02:38:40.350Z,328
2022-08-02T02:39:49.519Z,329
2022-08-02T02:40:58.689Z,328
2022-08-02T02:42:07.876Z,327
2022-08-02T02:43:17.043Z,328
2022-08-02T02:44:26.211Z,328
2022-08-02T02:45:34.408Z,329
2022-08-02T02:46:42.592Z,329
2022-08-02T02:47:50.789Z,330
2022-08-02T02:48:59.956Z,329
2022-08-02T02:50:09.128Z,329
2022-08-02T02:51:17.324Z,328
2022-08-02T02:52:25.508Z,329
2022-08-02T02:53:34.696Z,330
2022-08-02T02:54:43.857Z,328
2022-08-02T02:55:53.032Z,327
2022-08-02T02:57:02.200Z,328
2022-08-02T02:58:11.381Z,328
2022-08-02T02:59:20.552Z,328
2022-08-02T03:00:29.717Z,328
2022-08-02T03:01:38.896Z,328
2022-08-02T03:02:48.060Z,327
2022-08-02T03:03:57.243Z,328
2022-08-02T03:05:06.415Z,328
2022-08-02T03:06:15.602Z,328
2022-08-02T03:07:23.768Z,327
2022-08-02T03:08:32.945Z,328
2022-08-02T03:09:42.121Z,328
2022-08-02T03:10:51.297Z,328
2022-08-02T03:12:00.463Z,327
2022-08-02T03:13:09.637Z,328
2022-08-02T03:14:18.806Z,327
2022-08-02T03:15:27.003Z,327
2022-08-02T03:16:35.195Z,328
2022-08-02T03:17:43.385Z,328
2022-08-02T03:18:51.583Z,328
2022-08-02T03:20:00.757Z,329
2022-08-02T03:21:09.920Z,329
2022-08-02T03:22:19.105Z,328
2022-08-02T03:23:28.260Z,328
2022-08-02T03:24:37.441Z,328
2022-08-02T03:25:46.618Z,328
2022-08-02T03:26:55.821Z,330
2022-08-02T03:28:04.986Z,328
2022-08-02T03:29:14.141Z,328
2022-08-02T03:30:23.318Z,328
2022-08-02T03:31:32.487Z,328
2022-08-02T03:32:41.645Z,327
2022-08-02T03:33:49.839Z,328
2022-08-02T03:34:59.017Z,328
2022-08-02T03:36:08.196Z,328
2022-08-02T03:37:17.356Z,328
2022-08-02T03:38:26.545Z,328
2022-08-02T03:39:35.705Z,329
2022-08-02T03:40:44.888Z,329
2022-08-02T03:41:53.067Z,328
2022-08-02T03:43:01.262Z,329
2022-08-02T03:44:10.433Z,328
2022-08-02T03:45:18.624Z,328
2022-08-02T03:46:26.827Z,328
2022-08-02T03:47:35.991Z,328
2022-08-02T03:48:45.162Z,329
2022-08-02T03:49:54.336Z,328
2022-08-02T03:51:03.514Z,328
2022-08-02T03:52:12.686Z,328
2022-08-02T03:53:21.853Z,328
2022-08-02T03:54:31.025Z,328
2022-08-02T03:55:40.198Z,328
2022-08-02T03:56:49.372Z,328
2022-08-02T03:57:58.537Z,328
2022-08-02T03:59:07.722Z,327
2022-08-02T04:00:16.885Z,328
2022-08-02T04:01:25.079Z,328
2022-08-02T04:02:34.262Z,328
2022-08-02T04:03:43.422Z,329
2022-08-02T04:04:52.597Z,328
2022-08-02T04:06:01.767Z,328
2022-08-02T04:07:10.949Z,329
2022-08-02T04:08:20.123Z,328
2022-08-02T04:09:28.312Z,328
2022-08-02T04:10:36.504Z,328
2022-08-02T04:11:45.680Z,328
2022-08-02T04:12:54.852Z,328
2022-08-02T04:14:04.012Z,328
2022-08-02T04:15:13.202Z,329
2022-08-02T04:16:21.390Z,328
2022-08-02T04:17:29.575Z,330
2022-08-02T04:18:38.748Z,327
2022-08-02T04:19:47.921Z,327
2022-08-02T04:20:57.104Z,328
2022-08-02T04:22:06.273Z,328
2022-08-02T04:23:15.445Z,329
2022-08-02T04:24:24.624Z,327
2022-08-02T04:25:33.785Z,328
2022-08-02T04:26:42.953Z,329
2022-08-02T04:27:52.127Z,328
2022-08-02T04:29:01.303Z,329
2022-08-02T04:30:10.488Z,328
2022-08-02T04:31:19.650Z,327
2022-08-02T04:32:27.843Z,328
2022-08-02T04:33:37.007Z,329
2022-08-02T04:34:46.181Z,329
2022-08-02T04:35:55.360Z,328
2022-08-02T04:37:04.534Z,329
2022-08-02T04:38:13.703Z,329
2022-08-02T04:39:22.872Z,328
2022-08-02T04:40:32.052Z,329
2022-08-02T04:41:41.221Z,328
2022-08-02T04:42:50.408Z,327
2022-08-02T04:43:59.583Z,328
2022-08-02T04:45:08.735Z,328
2022-08-02T04:46:17.919Z,329
2022-08-02T04:47:26.102Z,327
2022-08-02T04:48:35.277Z,328
2022-08-02T04:49:44.455Z,329
2022-08-02T04:50:53.613Z,329
2022-08-02T04:52:02.803Z,330
2022-08-02T04:53:11.970Z,328
2022-08-02T04:54:21.151Z,330
2022-08-02T04:55:30.307Z,329
2022-08-02T04:56:39.489Z,329
2022-08-02T04:57:48.649Z,329
2022-08-02T04:58:56.852Z,328
2022-08-02T05:00:06.017Z,327
2022-08-02T05:01:15.203Z,328
2022-08-02T05:02:24.366Z,328
2022-08-02T05:03:33.538Z,330
2022-08-02T05:04:42.712Z,328
2022-08-02T05:05:51.878Z,329
2022-08-02T05:07:01.050Z,328
2022-08-02T05:08:10.226Z,328
2022-08-02T05:09:19.400Z,329
2022-08-02T05:10:28.606Z,328
2022-08-02T05:11:37.740Z,329
2022-08-02T05:12:46.922Z,329
2022-08-02T05:13:55.116Z,329
2022-08-02T05:15:04.283Z,330
2022-08-02T05:16:13.442Z,328
2022-08-02T05:17:22.631Z,329
2022-08-02T05:18:31.801Z,329
2022-08-02T05:19:40.968Z,329
2022-08-02T05:20:50.146Z,329
2022-08-02T05:21:59.317Z,329
2022-08-02T05:23:08.476Z,328
2022-08-02T05:24:17.659Z,331
2022-08-02T05:25:26.829Z,335
2022-08-02T05:26:35.999Z,343
2022-08-02T05:27:45.167Z,344
2022-08-02T05:28:53.363Z,343
2022-08-02T05:30:02.538Z,343
2022-08-02T05:31:11.710Z,343
2022-08-02T05:32:19.914Z,344
2022-08-02T05:33:28.101Z,342
2022-08-02T05:34:37.266Z,344
2022-08-02T05:35:46.433Z,344
2022-08-02T05:36:54.638Z,344
2022-08-02T05:38:02.819Z,343
2022-08-02T05:39:11.992Z,344
2022-08-02T05:40:21.175Z,344
2022-08-02T05:41:30.335Z,60
2022-08-02T05:42:39.506Z,62
2022-08-02T05:43:48.684Z,61
2022-08-02T05:44:57.852Z,61
2022-08-02T05:46:07.027Z,174
2022-08-02T05:47:16.188Z,176
2022-08-02T05:48:25.394Z,146
2022-08-02T05:49:34.550Z,117
2022-08-02T05:50:43.708Z,171
2022-08-02T05:51:52.894Z,151
2022-08-02T05:53:01.080Z,135
2022-08-02T05:54:10.244Z,182
2022-08-02T05:55:19.437Z,94
2022-08-02T05:56:28.600Z,93
2022-08-02T05:57:37.774Z,94
2022-08-02T05:58:46.946Z,94
2022-08-02T05:59:56.115Z,95
2022-08-02T06:01:05.307Z,93
2022-08-02T06:02:14.460Z,94
2022-08-02T06:03:23.628Z,94
2022-08-02T06:04:32.805Z,95
2022-08-02T06:05:41.977Z,156
2022-08-02T06:06:51.147Z,157
2022-08-02T06:07:59.342Z,141
2022-08-02T06:09:08.519Z,153
2022-08-02T06:10:17.690Z,135
2022-08-02T06:11:26.857Z,143
2022-08-02T06:12:36.023Z,134
2022-08-02T06:13:45.200Z,127
2022-08-02T06:14:54.369Z,151
2022-08-02T06:16:03.536Z,150
2022-08-02T06:17:12.712Z,142
2022-08-02T06:18:21.882Z,156
2022-08-02T06:19:31.055Z,148
2022-08-02T06:20:40.228Z,123
2022-08-02T06:21:49.406Z,163
2022-08-02T06:22:57.589Z,132
2022-08-02T06:24:06.761Z,135
2022-08-02T06:25:15.933Z,140
2022-08-02T06:26:25.105Z,159
2022-08-02T06:27:34.284Z,151
2022-08-02T06:28:43.447Z,137
2022-08-02T06:29:52.651Z,133
2022-08-02T06:31:01.802Z,124
2022-08-02T06:32:10.963Z,129
2022-08-02T06:33:20.133Z,180
2022-08-02T06:34:29.314Z,154
2022-08-02T06:35:38.494Z,126
2022-08-02T06:36:47.655Z,117
2022-08-02T06:37:55.846Z,107
2022-08-02T06:39:05.035Z,139
2022-08-02T06:40:14.201Z,137
2022-08-02T06:41:23.361Z,113
2022-08-02T06:42:32.543Z,132
2022-08-02T06:43:41.713Z,130
2022-08-02T06:44:50.886Z,134
2022-08-02T06:46:00.055Z,186
2022-08-02T06:47:09.240Z,131
2022-08-02T06:48:18.399Z,152
2022-08-02T06:49:27.578Z,174
2022-08-02T06:50:36.749Z,183
2022-08-02T06:51:45.921Z,182
2022-08-02T06:52:54.111Z,142
2022-08-02T06:54:03.275Z,135
2022-08-02T06:55:12.454Z,180
2022-08-02T06:56:21.621Z,145
2022-08-02T06:57:30.803Z,135
2022-08-02T06:58:39.970Z,126
2022-08-02T06:59:49.140Z,104
2022-08-02T07:00:58.320Z,116
2022-08-02T07:02:07.491Z,131
2022-08-02T07:03:16.669Z,134
2022-08-02T07:04:25.827Z,135
2022-08-02T07:05:35.013Z,135
2022-08-02T07:06:44.163Z,176
2022-08-02T07:07:52.368Z,118
2022-08-02T07:09:01.537Z,149
2022-08-02T07:10:10.714Z,135
2022-08-02T07:11:19.882Z,122
2022-08-02T07:12:29.058Z,144
2022-08-02T07:13:38.227Z,146
2022-08-02T07:14:47.403Z,167
2022-08-02T07:15:56.572Z,134
2022-08-02T07:17:05.743Z,163
2022-08-02T07:18:14.932Z,156
2022-08-02T07:19:24.097Z,114
2022-08-02T07:20:33.274Z,131
2022-08-02T07:21:42.437Z,182
2022-08-02T07:22:50.628Z,139
2022-08-02T07:23:59.799Z,138
2022-08-02T07:25:08.963Z,136
2022-08-02T07:26:18.132Z,101
2022-08-02T07:27:27.317Z,100
2022-08-02T07:28:36.482Z,107
2022-08-02T07:29:45.643Z,107
2022-08-02T07:30:54.828Z,129
2022-08-02T07:32:03.044Z,120
2022-08-02T07:33:11.209Z,156
2022-08-02T07:34:20.379Z,181
2022-08-02T07:35:29.546Z,131
2022-08-02T07:36:38.724Z,110
2022-08-02T07:37:46.922Z,140
2022-08-02T07:38:55.103Z,174
2022-08-02T07:40:04.277Z,185
2022-08-02T07:41:13.446Z,149
2022-08-02T07:42:22.631Z,127
2022-08-02T07:43:31.802Z,158
2022-08-02T07:44:40.971Z,140
2022-08-02T07:45:50.140Z,181
2022-08-02T07:46:59.371Z,170
2022-08-02T07:48:08.498Z,119
2022-08-02T07:49:17.663Z,123
2022-08-02T07:50:26.835Z,146
2022-08-02T07:51:36.013Z,166
2022-08-02T07:52:45.190Z,147
2022-08-02T07:53:53.392Z,157
2022-08-02T07:55:02.548Z,124
2022-08-02T07:56:11.713Z,156
2022-08-02T07:57:20.888Z,151
2022-08-02T07:58:30.061Z,174
2022-08-02T07:59:39.232Z,148
2022-08-02T08:00:48.400Z,172
2022-08-02T08:01:57.575Z,185
2022-08-02T08:03:06.742Z,126
2022-08-02T08:04:15.913Z,119
2022-08-02T08:05:25.100Z,156
2022-08-02T08:06:34.261Z,176
2022-08-02T08:07:43.435Z,165
2022-08-02T08:08:51.620Z,232
2022-08-02T08:10:00.799Z,160
2022-08-02T08:11:09.967Z,147
2022-08-02T08:12:19.139Z,153
2022-08-02T08:13:28.313Z,169
2022-08-02T08:14:37.500Z,194
2022-08-02T08:15:46.650Z,155
2022-08-02T08:16:55.838Z,175
2022-08-02T08:18:05.015Z,187
2022-08-02T08:19:14.181Z,142
2022-08-02T08:20:23.344Z,171
2022-08-02T08:21:32.510Z,176
2022-08-02T08:22:41.690Z,179
2022-08-02T08:23:49.878Z,178
2022-08-02T08:24:59.059Z,155
2022-08-02T08:26:08.221Z,176
2022-08-02T08:27:17.401Z,203
2022-08-02T08:28:26.569Z,154
2022-08-02T08:29:35.740Z,171
2022-08-02T08:30:44.908Z,148
2022-08-02T08:31:54.095Z,174
2022-08-02T08:33:03.262Z,203
2022-08-02T08:34:12.431Z,214
2022-08-02T08:35:21.613Z,183
2022-08-02T08:36:30.778Z,178
2022-08-02T08:37:39.945Z,146
2022-08-02T08:38:48.135Z,183
2022-08-02T08:39:57.296Z,168
2022-08-02T08:41:06.486Z,207
2022-08-02T08:42:15.683Z,169
2022-08-02T08:43:24.834Z,154
2022-08-02T08:44:34.003Z,151
2022-08-02T08:45:43.169Z,166
2022-08-02T08:46:52.348Z,159
2022-08-02T08:48:01.524Z,139
2022-08-02T08:49:10.691Z,139
2022-08-02T08:50:18.881Z,205
2022-08-02T08:51:28.050Z,219
2022-08-02T08:52:37.225Z,201
2022-08-02T08:53:46.397Z,186
2022-08-02T08:54:55.576Z,164
2022-08-02T08:56:04.738Z,208
2022-08-02T08:57:13.917Z,143
2022-08-02T08:58:23.084Z,182
2022-08-02T08:59:32.277Z,156
2022-08-02T09:00:41.439Z,191
2022-08-02T09:01:50.607Z,163
2022-08-02T09:02:59.776Z,177
2022-08-02T09:04:08.946Z,199
2022-08-02T09:05:18.133Z,161
2022-08-02T09:06:26.318Z,190
2022-08-02T09:07:35.491Z,180
2022-08-02T09:08:44.650Z,139
2022-08-02T09:09:53.828Z,191
2022-08-02T09:11:03.004Z,154
2022-08-02T09:12:12.216Z,121
2022-08-02T09:13:21.337Z,191
2022-08-02T09:14:30.532Z,133
2022-08-02T09:15:39.692Z,129
2022-08-02T09:16:48.866Z,111
2022-08-02T09:17:58.037Z,132
2022-08-02T09:19:07.210Z,141
2022-08-02T09:20:16.380Z,110
2022-08-02T09:21:24.562Z,135
2022-08-02T09:22:33.741Z,147
2022-08-02T09:23:42.925Z,144
2022-08-02T09:24:52.102Z,140
2022-08-02T09:26:01.265Z,180
2022-08-02T09:27:10.438Z,130
2022-08-02T09:28:19.610Z,168
2022-08-02T09:29:28.773Z,150
2022-08-02T09:30:37.974Z,183
2022-08-02T09:31:47.124Z,196
2022-08-02T09:32:56.297Z,189
2022-08-02T09:34:05.475Z,161
2022-08-02T09:35:14.658Z,175
2022-08-02T09:36:22.827Z,149
2022-08-02T09:37:32.022Z,194
2022-08-02T09:38:41.167Z,186
2022-08-02T09:39:50.345Z,173
2022-08-02T09:40:59.542Z,138
2022-08-02T09:43:17.855Z,166
2022-08-02T09:44:27.038Z,197
2022-08-02T09:45:36.200Z,166
2022-08-02T09:46:45.379Z,168
2022-08-02T09:47:54.552Z,135
2022-08-02T09:49:03.722Z,146
2022-08-02T09:50:12.911Z,143
2022-08-02T09:51:21.089Z,161
2022-08-02T09:52:30.258Z,185
2022-08-02T09:53:39.433Z,191
2022-08-02T09:54:48.618Z,140
2022-08-02T09:55:57.768Z,126
2022-08-02T09:57:06.949Z,187
2022-08-02T09:58:16.128Z,184
2022-08-02T09:59:25.302Z,192
2022-08-02T10:00:34.458Z,178
2022-08-02T10:01:43.635Z,187
2022-08-02T10:02:52.829Z,156
2022-08-02T10:04:02.006Z,189
2022-08-02T10:05:11.157Z,177
2022-08-02T10:06:19.342Z,140
2022-08-02T10:07:28.510Z,130
2022-08-02T10:08:37.680Z,137
2022-08-02T10:09:46.866Z,141
2022-08-02T10:10:56.046Z,162
2022-08-02T10:12:04.236Z,155
2022-08-02T10:13:12.410Z,147
2022-08-02T10:14:21.585Z,148
2022-08-02T10:15:30.777Z,182
2022-08-02T10:16:39.931Z,170
2022-08-02T10:17:49.095Z,129
2022-08-02T10:18:58.280Z,190
2022-08-02T10:20:07.447Z,156
2022-08-02T10:21:15.632Z,170
2022-08-02T10:22:23.831Z,149
2022-08-02T10:23:33.002Z,140
2022-08-02T10:24:42.179Z,163
2022-08-02T10:25:51.347Z,207
2022-08-02T10:27:00.520Z,223
2022-08-02T10:28:09.686Z,181
2022-08-02T10:29:18.858Z,225
2022-08-02T10:30:28.069Z,221
2022-08-02T10:31:37.204Z,186
2022-08-02T10:32:46.384Z,131
2022-08-02T10:33:55.555Z,165
2022-08-02T10:35:04.732Z,173
2022-08-02T10:36:13.899Z,131
2022-08-02T10:37:22.082Z,153
2022-08-02T10:38:31.257Z,206
2022-08-02T10:39:40.433Z,168
2022-08-02T10:40:49.616Z,149
2022-08-02T10:41:58.776Z,184
2022-08-02T10:43:07.959Z,233
2022-08-02T10:45:26.298Z,162
2022-08-02T10:46:35.479Z,116
2022-08-02T10:47:44.650Z,135
2022-08-02T10:48:53.828Z,171
2022-08-02T10:50:02.991Z,140
2022-08-02T10:51:12.164Z,146
2022-08-02T10:52:20.363Z,155
2022-08-02T10:53:29.518Z,199
2022-08-02T10:54:38.699Z,174
2022-08-02T10:55:47.867Z,198
2022-08-02T10:56:57.050Z,143
2022-08-02T10:58:06.212Z,155
2022-08-02T10:59:15.394Z,151
2022-08-02T11:00:24.567Z,183
2022-08-02T11:01:33.731Z,182
2022-08-02T11:02:42.945Z,209
2022-08-02T11:03:52.121Z,158
2022-08-02T11:05:01.257Z,164
2022-08-02T11:06:10.415Z,180
2022-08-02T11:07:18.613Z,170
2022-08-02T11:08:27.782Z,144
2022-08-02T11:09:36.958Z,133
2022-08-02T11:10:46.131Z,136
2022-08-02T11:11:55.300Z,169
2022-08-02T11:13:04.466Z,164
2022-08-02T11:14:13.647Z,177
2022-08-02T11:15:22.824Z,177
2022-08-02T11:16:31.996Z,183
2022-08-02T11:17:41.174Z,199
2022-08-02T11:18:50.335Z,190
2022-08-02T11:19:59.517Z,222
2022-08-02T11:21:08.682Z,173
2022-08-02T11:22:16.876Z,101
2022-08-02T11:23:26.049Z,192
2022-08-02T11:24:35.246Z,148
2022-08-02T11:25:44.379Z,133
2022-08-02T11:26:53.570Z,217
2022-08-02T11:28:02.734Z,165
2022-08-02T11:29:11.935Z,210
2022-08-02T11:30:21.082Z,167
2022-08-02T11:31:30.253Z,171
2022-08-02T11:32:39.427Z,234
2022-08-02T11:33:48.597Z,234
2022-08-02T11:34:57.770Z,190
2022-08-02T11:36:06.948Z,200
2022-08-02T11:37:15.129Z,164
2022-08-02T11:38:24.310Z,163
2022-08-02T11:39:33.476Z,175
2022-08-02T11:40:42.643Z,224
2022-08-02T11:41:51.821Z,156
2022-08-02T11:43:01.007Z,161
2022-08-02T11:44:10.165Z,129
2022-08-02T11:45:19.347Z,180
2022-08-02T11:46:28.523Z,215
2022-08-02T11:47:37.683Z,205
2022-08-02T11:48:46.877Z,247
2022-08-02T11:49:56.029Z,107
2022-08-02T11:51:05.206Z,179
2022-08-02T11:52:14.403Z,153
2022-08-02T11:53:22.586Z,162
2022-08-02T11:54:31.741Z,192
2022-08-02T11:55:40.913Z,161
2022-08-02T11:56:50.084Z,224
2022-08-02T11:57:59.252Z,81
2022-08-02T11:59:08.428Z,151
2022-08-02T12:00:17.601Z,192
2022-08-02T12:01:26.771Z,155
2022-08-02T12:02:35.978Z,173
2022-08-02T12:03:45.117Z,216
2022-08-02T12:06:03.461Z,172
2022-08-02T12:07:12.647Z,219
2022-08-02T12:08:20.824Z,148
2022-08-02T12:09:29.991Z,207
2022-08-02T12:10:39.162Z,178
2022-08-02T12:11:48.342Z,198
2022-08-02T12:12:57.521Z,162
2022-08-02T12:14:06.698Z,181
2022-08-02T12:15:15.857Z,210
2022-08-02T12:16:25.029Z,189
2022-08-02T12:17:34.215Z,187
2022-08-02T12:18:43.394Z,157
2022-08-02T12:19:52.545Z,208
2022-08-02T12:21:01.717Z,220
2022-08-02T12:22:10.918Z,172
2022-08-02T12:23:20.065Z,135
2022-08-02T12:24:28.261Z,191
2022-08-02T12:25:37.428Z,207
2022-08-02T12:26:46.623Z,194
2022-08-02T12:27:55.777Z,172
2022-08-02T12:29:04.948Z,170
2022-08-02T12:30:14.125Z,176
2022-08-02T12:31:23.299Z,160
2022-08-02T12:32:32.495Z,188
2022-08-02T12:33:41.634Z,185
2022-08-02T12:34:50.817Z,182
2022-08-02T12:35:59.984Z,161
2022-08-02T12:37:09.169Z,160
2022-08-02T12:38:17.361Z,144
2022-08-02T12:39:25.537Z,232
2022-08-02T12:40:34.710Z,134
2022-08-02T12:41:42.910Z,204
2022-08-02T12:42:52.098Z,177
2022-08-02T12:44:01.267Z,151
2022-08-02T12:45:10.435Z,191
2022-08-02T12:46:19.591Z,107
2022-08-02T12:47:28.772Z,108
2022-08-02T12:48:37.937Z,140
2022-08-02T12:49:46.133Z,174
2022-08-02T12:50:54.329Z,139
2022-08-02T12:52:03.510Z,139
2022-08-02T12:53:12.682Z,139
2022-08-02T12:54:21.852Z,169
2022-08-02T12:55:31.024Z,137
2022-08-02T12:56:40.183Z,152
2022-08-02T12:57:49.348Z,236
2022-08-02T12:58:58.533Z,161
2022-08-02T13:00:07.703Z,178
2022-08-02T13:01:16.875Z,158
2022-08-02T13:02:26.057Z,189
2022-08-02T13:03:35.230Z,180
2022-08-02T13:04:44.407Z,104
2022-08-02T13:05:52.579Z,180
2022-08-02T13:07:01.755Z,158
2022-08-02T13:08:10.928Z,175
2022-08-02T13:09:20.115Z,151
2022-08-02T13:10:29.288Z,145
2022-08-02T13:11:38.446Z,192
2022-08-02T13:12:47.621Z,177
2022-08-02T13:13:56.799Z,187
2022-08-02T13:15:05.965Z,155
2022-08-02T13:16:15.141Z,178
2022-08-02T13:17:24.320Z,191
2022-08-02T13:18:33.481Z,181
2022-08-02T13:19:42.663Z,161
2022-08-02T13:20:50.850Z,186
2022-08-02T13:22:00.023Z,203
2022-08-02T13:23:09.184Z,183
2022-08-02T13:24:18.384Z,205
2022-08-02T13:25:27.556Z,181
2022-08-02T13:26:36.725Z,212
2022-08-02T13:27:45.888Z,196
2022-08-02T13:28:55.057Z,169
2022-08-02T13:30:04.226Z,139
2022-08-02T13:31:13.399Z,198
2022-08-02T13:32:22.583Z,198
2022-08-02T13:33:31.741Z,201
2022-08-02T13:34:40.916Z,179
2022-08-02T13:35:49.105Z,169
2022-08-02T13:36:58.278Z,152
2022-08-02T13:38:07.458Z,186
2022-08-02T13:39:16.623Z,148
2022-08-02T13:40:25.798Z,174
2022-08-02T13:41:34.973Z,192
2022-08-02T13:42:44.171Z,146
2022-08-02T13:43:53.308Z,264
2022-08-02T13:45:02.481Z,100
2022-08-02T13:46:11.658Z,140
2022-08-02T13:47:20.826Z,177
2022-08-02T13:48:29.034Z,146
2022-08-02T13:49:37.223Z,192
2022-08-02T13:50:46.386Z,145
2022-08-02T13:51:54.585Z,208
2022-08-02T13:53:02.763Z,164
2022-08-02T13:54:11.946Z,152
2022-08-02T13:55:21.113Z,184
2022-08-02T13:56:30.304Z,197
2022-08-02T13:57:39.466Z,139
2022-08-02T13:58:48.634Z,192
2022-08-02T13:59:57.821Z,185
2022-08-02T14:01:06.977Z,187
2022-08-02T14:02:16.159Z,210
2022-08-02T14:03:25.331Z,169
2022-08-02T14:04:34.503Z,202
2022-08-02T14:05:43.675Z,175
2022-08-02T14:06:52.854Z,170
2022-08-02T14:08:01.041Z,195
2022-08-02T14:09:10.208Z,176
2022-08-02T14:10:19.387Z,140
2022-08-02T14:11:28.553Z,174
2022-08-02T14:12:37.718Z,143
2022-08-02T14:13:46.905Z,179
2022-08-02T14:14:56.073Z,197
2022-08-02T14:16:05.240Z,163
2022-08-02T14:17:14.437Z,240
2022-08-02T14:18:23.586Z,142
2022-08-02T14:19:32.766Z,194
2022-08-02T14:20:41.942Z,136
2022-08-02T14:21:51.105Z,210
2022-08-02T14:22:59.294Z,136
2022-08-02T14:24:08.467Z,169
2022-08-02T14:25:17.642Z,135
2022-08-02T14:26:26.818Z,152
2022-08-02T14:27:35.994Z,51
2022-08-02T14:28:45.156Z,186
2022-08-02T14:29:54.363Z,76
2022-08-02T14:31:03.506Z,192
2022-08-02T14:32:12.687Z,168
2022-08-02T14:33:21.848Z,195
2022-08-02T14:34:31.039Z,215
2022-08-02T14:35:40.203Z,219
2022-08-02T14:36:49.386Z,205
2022-08-02T14:37:57.561Z,169
2022-08-02T14:39:06.736Z,198
2022-08-02T14:40:15.904Z,181
2022-08-02T14:41:25.087Z,178
2022-08-02T14:42:34.258Z,183
2022-08-02T14:43:43.423Z,198
2022-08-02T14:44:52.607Z,191
2022-08-02T14:46:00.790Z,198
2022-08-02T14:47:08.997Z,223
2022-08-02T14:48:17.180Z,194
2022-08-02T14:49:25.358Z,148
2022-08-02T14:50:34.535Z,151
2022-08-02T14:51:43.712Z,161
2022-08-02T14:52:52.878Z,161
2022-08-02T14:54:02.062Z,169
2022-08-02T14:55:11.244Z,137
2022-08-02T14:56:20.405Z,171
2022-08-02T14:57:29.576Z,181
2022-08-02T14:58:38.741Z,174
2022-08-02T14:59:47.915Z,181
2022-08-02T15:00:57.087Z,81
2022-08-02T15:02:06.270Z,55
2022-08-02T15:03:15.439Z,193
2022-08-02T15:04:23.616Z,181
2022-08-02T15:05:32.812Z,169
2022-08-02T15:06:41.970Z,142
2022-08-02T15:07:51.166Z,168
2022-08-02T15:09:00.334Z,199
2022-08-02T15:10:09.489Z,192
2022-08-02T15:11:18.676Z,211
2022-08-02T15:12:27.845Z,162
2022-08-02T15:13:37.002Z,241
2022-08-02T15:14:46.209Z,181
2022-08-02T15:15:55.354Z,184
2022-08-02T15:17:04.578Z,167
2022-08-02T15:18:13.705Z,150
2022-08-02T15:19:21.890Z,143
2022-08-02T15:20:31.059Z,162
2022-08-02T15:21:40.236Z,175
2022-08-02T15:22:49.405Z,181
2022-08-02T15:23:58.581Z,178
2022-08-02T15:25:07.751Z,163
2022-08-02T15:26:16.956Z,166
2022-08-02T15:27:26.117Z,125
2022-08-02T15:28:35.275Z,191
2022-08-02T15:29:44.468Z,171
2022-08-02T15:30:53.619Z,196
2022-08-02T15:32:02.804Z,189
2022-08-02T15:33:11.964Z,207
2022-08-02T15:34:20.166Z,140
2022-08-02T15:35:29.326Z,138
2022-08-02T15:36:38.496Z,143
2022-08-02T15:37:47.668Z,120
2022-08-02T15:38:56.839Z,158
2022-08-02T15:40:06.014Z,220
2022-08-02T15:41:14.212Z,216
2022-08-02T15:42:22.399Z,219
2022-08-02T15:43:31.598Z,140
2022-08-02T15:44:40.766Z,192
2022-08-02T15:45:49.927Z,201
2022-08-02T15:46:59.096Z,130
2022-08-02T15:48:08.275Z,222
2022-08-02T15:49:16.465Z,177
2022-08-02T15:50:24.650Z,229
2022-08-02T15:51:33.824Z,171
2022-08-02T15:52:43.028Z,173
2022-08-02T15:55:01.335Z,166
2022-08-02T15:56:10.524Z,199
2022-08-02T15:57:19.699Z,178
2022-08-02T15:58:28.863Z,174